sensor_id;sensor_type;location;lat;lon;timestamp;pressure;altitude;pressure_sealevel;temperature;humidity
76311;BME280;65120;59.304;18.294;2023-03-08T00:01:18;98043.50;;;-0.32;75.17
76311;BME280;65120;59.304;18.294;2023-03-08T00:03:50;98048.63;;;-0.32;75.25
76311;BME280;65120;59.304;18.294;2023-03-08T00:06:17;98043.50;;;-0.32;74.64
76311;BME280;65120;59.304;18.294;2023-03-08T00:08:44;98042.66;;;-0.32;74.77
76311;BME280;65120;59.304;18.294;2023-03-08T00:11:13;98020.56;;;-0.39;74.96
76311;BME280;65120;59.304;18.294;2023-03-08T00:13:41;98037.47;;;-0.29;75.12
76311;BME280;65120;59.304;18.294;2023-03-08T00:16:10;98029.75;;;-0.28;75.03
76311;BME280;65120;59.304;18.294;2023-03-08T00:18:37;98028.03;;;-0.29;74.95
76311;BME280;65120;59.304;18.294;2023-03-08T00:21:06;98029.75;;;-0.28;74.80
76311;BME280;65120;59.304;18.294;2023-03-08T00:23:36;98028.00;;;-0.26;74.82
76311;BME280;65120;59.304;18.294;2023-03-08T00:26:04;98026.31;;;-0.27;74.61
76311;BME280;65120;59.304;18.294;2023-03-08T00:28:31;98024.56;;;-0.26;75.45
76311;BME280;65120;59.304;18.294;2023-03-08T00:31:01;98030.59;;;-0.26;74.53
76311;BME280;65120;59.304;18.294;2023-03-08T00:33:29;98015.34;;;-0.35;74.91
76311;BME280;65120;59.304;18.294;2023-03-08T00:35:58;98010.97;;;-0.28;74.86
76311;BME280;65120;59.304;18.294;2023-03-08T00:38:25;98019.50;;;-0.28;74.92
76311;BME280;65120;59.304;18.294;2023-03-08T00:40:53;98022.06;;;-0.28;74.46
76311;BME280;65120;59.304;18.294;2023-03-08T00:43:20;98014.38;;;-0.28;74.99
76311;BME280;65120;59.304;18.294;2023-03-08T00:45:47;98014.38;;;-0.28;74.78
76311;BME280;65120;59.304;18.294;2023-03-08T00:48:15;98014.44;;;-0.32;74.93
76311;BME280;65120;59.304;18.294;2023-03-08T00:50:42;98015.31;;;-0.33;74.86
76311;BME280;65120;59.304;18.294;2023-03-08T00:53:10;98002.44;;;-0.32;75.06
76311;BME280;65120;59.304;18.294;2023-03-08T00:55:37;98016.94;;;-0.28;74.45
76311;BME280;65120;59.304;18.294;2023-03-08T00:58:04;98013.53;;;-0.28;74.43
76311;BME280;65120;59.304;18.294;2023-03-08T01:00:31;98012.63;;;-0.27;74.62
76311;BME280;65120;59.304;18.294;2023-03-08T01:02:58;98005.84;;;-0.30;74.35
76311;BME280;65120;59.304;18.294;2023-03-08T01:05:26;98019.44;;;-0.26;74.72
76311;BME280;65120;59.304;18.294;2023-03-08T01:07:54;98010.91;;;-0.27;74.86
76311;BME280;65120;59.304;18.294;2023-03-08T01:10:21;97993.09;;;-0.34;74.41
76311;BME280;65120;59.304;18.294;2023-03-08T01:12:47;98007.50;;;-0.27;74.38
76311;BME280;65120;59.304;18.294;2023-03-08T01:15:14;98010.06;;;-0.27;74.46
76311;BME280;65120;59.304;18.294;2023-03-08T01:17:41;97997.31;;;-0.32;74.16
76311;BME280;65120;59.304;18.294;2023-03-08T01:20:09;98004.94;;;-0.27;73.85
76311;BME280;65120;59.304;18.294;2023-03-08T01:22:38;98001.56;;;-0.29;74.32
76311;BME280;65120;59.304;18.294;2023-03-08T01:25:05;98007.50;;;-0.27;73.94
76311;BME280;65120;59.304;18.294;2023-03-08T01:27:32;97993.16;;;-0.36;73.76
76311;BME280;65120;59.304;18.294;2023-03-08T01:29:59;98014.44;;;-0.31;74.15
76311;BME280;65120;59.304;18.294;2023-03-08T01:32:26;97993.97;;;-0.35;73.89
76311;BME280;65120;59.304;18.294;2023-03-08T01:34:53;97982.19;;;-0.44;73.72
76311;BME280;65120;59.304;18.294;2023-03-08T01:37:20;97999.16;;;-0.37;74.37
76311;BME280;65120;59.304;18.294;2023-03-08T01:39:49;97997.44;;;-0.38;73.51
76311;BME280;65120;59.304;18.294;2023-03-08T01:42:15;97997.63;;;-0.46;73.31
76311;BME280;65120;59.304;18.294;2023-03-08T01:44:50;97999.25;;;-0.43;73.43
76311;BME280;65120;59.304;18.294;2023-03-08T01:47:19;97994.16;;;-0.44;73.39
76311;BME280;65120;59.304;18.294;2023-03-08T01:49:46;97997.56;;;-0.44;73.28
76311;BME280;65120;59.304;18.294;2023-03-08T01:52:15;97986.47;;;-0.44;73.37
76311;BME280;65120;59.304;18.294;2023-03-08T01:54:46;97992.44;;;-0.44;73.01
76311;BME280;65120;59.304;18.294;2023-03-08T01:57:18;97992.50;;;-0.46;72.89
76311;BME280;65120;59.304;18.294;2023-03-08T01:59:47;97989.94;;;-0.49;72.73
76311;BME280;65120;59.304;18.294;2023-03-08T02:02:17;97986.66;;;-0.54;72.11
76311;BME280;65120;59.304;18.294;2023-03-08T02:04:46;97993.47;;;-0.53;72.62
76311;BME280;65120;59.304;18.294;2023-03-08T02:07:13;97998.66;;;-0.56;72.64
76311;BME280;65120;59.304;18.294;2023-03-08T02:09:40;97990.13;;;-0.56;72.73
76311;BME280;65120;59.304;18.294;2023-03-08T02:12:10;98002.09;;;-0.57;72.71
76311;BME280;65120;59.304;18.294;2023-03-08T02:14:40;97986.00;;;-0.66;72.35
76311;BME280;65120;59.304;18.294;2023-03-08T02:17:08;97994.53;;;-0.64;72.62
76311;BME280;65120;59.304;18.294;2023-03-08T02:19:42;98006.47;;;-0.63;72.30
76311;BME280;65120;59.304;18.294;2023-03-08T02:22:11;97992.81;;;-0.64;72.06
76311;BME280;65120;59.304;18.294;2023-03-08T02:24:39;98008.19;;;-0.64;72.78
76311;BME280;65120;59.304;18.294;2023-03-08T02:27:09;97992.09;;;-0.72;72.42
76311;BME280;65120;59.304;18.294;2023-03-08T02:29:37;97982.81;;;-0.78;72.43
76311;BME280;65120;59.304;18.294;2023-03-08T02:32:05;97988.69;;;-0.71;72.15
76311;BME280;65120;59.304;18.294;2023-03-08T02:34:31;97997.22;;;-0.71;72.26
76311;BME280;65120;59.304;18.294;2023-03-08T02:36:58;97997.28;;;-0.74;72.65
76311;BME280;65120;59.304;18.294;2023-03-08T02:39:25;97994.78;;;-0.78;72.03
76311;BME280;65120;59.304;18.294;2023-03-08T02:41:54;98006.69;;;-0.76;72.30
76311;BME280;65120;59.304;18.294;2023-03-08T02:44:21;97981.13;;;-0.79;72.19
76311;BME280;65120;59.304;18.294;2023-03-08T02:46:48;98001.63;;;-0.79;72.01
76311;BME280;65120;59.304;18.294;2023-03-08T02:49:15;98001.69;;;-0.82;72.76
76311;BME280;65120;59.304;18.294;2023-03-08T02:51:42;98006.75;;;-0.79;72.32
76311;BME280;65120;59.304;18.294;2023-03-08T02:54:09;97999.13;;;-0.83;72.79
76311;BME280;65120;59.304;18.294;2023-03-08T02:56:36;98006.81;;;-0.82;71.97
76311;BME280;65120;59.304;18.294;2023-03-08T02:59:04;97995.72;;;-0.82;72.37
76311;BME280;65120;59.304;18.294;2023-03-08T03:01:31;98001.75;;;-0.85;72.21
76311;BME280;65120;59.304;18.294;2023-03-08T03:03:58;98018.84;;;-0.87;72.67
76311;BME280;65120;59.304;18.294;2023-03-08T03:06:25;98003.47;;;-0.87;72.17
76311;BME280;65120;59.304;18.294;2023-03-08T03:08:52;98003.47;;;-0.88;72.16
76311;BME280;65120;59.304;18.294;2023-03-08T03:11:20;98009.50;;;-0.89;71.88
76311;BME280;65120;59.304;18.294;2023-03-08T03:13:53;97995.00;;;-0.92;72.26
76311;BME280;65120;59.304;18.294;2023-03-08T03:16:21;98016.34;;;-0.92;72.32
76311;BME280;65120;59.304;18.294;2023-03-08T03:18:48;97995.84;;;-0.92;72.56
76311;BME280;65120;59.304;18.294;2023-03-08T03:21:15;98008.69;;;-0.93;71.73
76311;BME280;65120;59.304;18.294;2023-03-08T03:23:42;98011.28;;;-0.95;72.04
76311;BME280;65120;59.304;18.294;2023-03-08T03:26:11;97999.34;;;-0.96;72.11
76311;BME280;65120;59.304;18.294;2023-03-08T03:28:38;97991.66;;;-0.97;72.07
76311;BME280;65120;59.304;18.294;2023-03-08T03:31:07;98000.25;;;-0.98;71.93
76311;BME280;65120;59.304;18.294;2023-03-08T03:33:36;98002.81;;;-0.98;72.00
76311;BME280;65120;59.304;18.294;2023-03-08T03:36:04;98003.69;;;-0.99;72.08
76311;BME280;65120;59.304;18.294;2023-03-08T03:38:31;98008.81;;;-0.99;72.38
76311;BME280;65120;59.304;18.294;2023-03-08T03:41:02;97990.16;;;-1.07;72.08
76311;BME280;65120;59.304;18.294;2023-03-08T03:43:29;98007.16;;;-1.03;71.87
76311;BME280;65120;59.304;18.294;2023-03-08T03:45:57;98000.34;;;-1.04;71.71
76311;BME280;65120;59.304;18.294;2023-03-08T03:48:25;98013.16;;;-1.06;72.25
76311;BME280;65120;59.304;18.294;2023-03-08T03:50:57;97995.38;;;-1.14;72.21
76311;BME280;65120;59.304;18.294;2023-03-08T03:53:24;98017.50;;;-1.08;71.87
76311;BME280;65120;59.304;18.294;2023-03-08T03:55:51;98014.06;;;-1.08;72.44
76311;BME280;65120;59.304;18.294;2023-03-08T03:58:18;97983.63;;;-1.27;71.98
76311;BME280;65120;59.304;18.294;2023-03-08T04:00:45;98014.09;;;-1.11;72.68
76311;BME280;65120;59.304;18.294;2023-03-08T04:03:12;98012.44;;;-1.13;71.90
76311;BME280;65120;59.304;18.294;2023-03-08T04:05:39;98011.59;;;-1.13;71.94
76311;BME280;65120;59.304;18.294;2023-03-08T04:08:07;98007.41;;;-1.19;71.99
76311;BME280;65120;59.304;18.294;2023-03-08T04:10:34;98015.94;;;-1.18;72.39
76311;BME280;65120;59.304;18.294;2023-03-08T04:13:01;98015.94;;;-1.17;72.15
76311;BME280;65120;59.304;18.294;2023-03-08T04:15:28;98019.38;;;-1.19;71.67
76311;BME280;65120;59.304;18.294;2023-03-08T04:17:55;98032.19;;;-1.19;72.34
76311;BME280;65120;59.304;18.294;2023-03-08T04:20:22;98011.75;;;-1.24;72.36
76311;BME280;65120;59.304;18.294;2023-03-08T04:22:49;98032.22;;;-1.22;71.98
76311;BME280;65120;59.304;18.294;2023-03-08T04:25:17;98019.44;;;-1.24;72.33
76311;BME280;65120;59.304;18.294;2023-03-08T04:27:44;98027.13;;;-1.25;71.85
76311;BME280;65120;59.304;18.294;2023-03-08T04:30:12;98039.09;;;-1.26;72.27
76311;BME280;65120;59.304;18.294;2023-03-08T04:32:39;98034.91;;;-1.30;72.27
76311;BME280;65120;59.304;18.294;2023-03-08T04:35:07;98026.34;;;-1.29;72.43
76311;BME280;65120;59.304;18.294;2023-03-08T04:37:34;98025.50;;;-1.28;72.14
76311;BME280;65120;59.304;18.294;2023-03-08T04:40:02;98034.91;;;-1.30;72.37
76311;BME280;65120;59.304;18.294;2023-03-08T04:42:33;98035.78;;;-1.31;72.51
76311;BME280;65120;59.304;18.294;2023-03-08T04:45:00;98051.16;;;-1.31;72.53
76311;BME280;65120;59.304;18.294;2023-03-08T04:47:27;98031.56;;;-1.35;72.36
76311;BME280;65120;59.304;18.294;2023-03-08T04:49:54;98038.41;;;-1.37;72.59
76311;BME280;65120;59.304;18.294;2023-03-08T04:52:20;98045.19;;;-1.33;72.64
76311;BME280;65120;59.304;18.294;2023-03-08T04:54:47;98052.88;;;-1.33;72.55
76311;BME280;65120;59.304;18.294;2023-03-08T04:57:14;98043.53;;;-1.37;72.71
76311;BME280;65120;59.304;18.294;2023-03-08T04:59:44;98045.28;;;-1.39;72.83
76311;BME280;65120;59.304;18.294;2023-03-08T05:02:10;98058.88;;;-1.36;72.92
76311;BME280;65120;59.304;18.294;2023-03-08T05:04:37;98026.72;;;-1.53;72.80
76311;BME280;65120;59.304;18.294;2023-03-08T05:07:04;98052.91;;;-1.36;72.99
76311;BME280;65120;59.304;18.294;2023-03-08T05:09:31;98052.97;;;-1.39;72.60
76311;BME280;65120;59.304;18.294;2023-03-08T05:11:58;98061.44;;;-1.37;73.09
76311;BME280;65120;59.304;18.294;2023-03-08T05:14:25;98039.38;;;-1.44;72.83
76311;BME280;65120;59.304;18.294;2023-03-08T05:16:55;98053.84;;;-1.42;73.25
76311;BME280;65120;59.304;18.294;2023-03-08T05:19:22;98055.53;;;-1.39;73.29
76311;BME280;65120;59.304;18.294;2023-03-08T05:21:49;98064.06;;;-1.40;73.16
76311;BME280;65120;59.304;18.294;2023-03-08T05:24:16;98058.13;;;-1.42;73.20
76311;BME280;65120;59.304;18.294;2023-03-08T05:26:43;98063.25;;;-1.42;72.80
76311;BME280;65120;59.304;18.294;2023-03-08T05:29:10;98080.28;;;-1.41;72.85
76311;BME280;65120;59.304;18.294;2023-03-08T05:31:37;98063.25;;;-1.42;73.17
76311;BME280;65120;59.304;18.294;2023-03-08T05:34:05;98072.66;;;-1.44;72.93
76311;BME280;65120;59.304;18.294;2023-03-08T05:36:32;98073.50;;;-1.42;73.30
76311;BME280;65120;59.304;18.294;2023-03-08T05:38:59;98070.06;;;-1.43;73.47
76311;BME280;65120;59.304;18.294;2023-03-08T05:41:26;98074.34;;;-1.43;73.38
76311;BME280;65120;59.304;18.294;2023-03-08T05:43:53;98071.88;;;-1.49;73.24
76311;BME280;65120;59.304;18.294;2023-03-08T05:46:22;98076.94;;;-1.45;72.85
76311;BME280;65120;59.304;18.294;2023-03-08T05:48:49;98081.19;;;-1.45;72.98
76311;BME280;65120;59.304;18.294;2023-03-08T05:51:18;98084.63;;;-1.46;73.39
76311;BME280;65120;59.304;18.294;2023-03-08T05:53:45;98105.94;;;-1.46;73.26
76311;BME280;65120;59.304;18.294;2023-03-08T05:56:14;98101.66;;;-1.45;73.49
76311;BME280;65120;59.304;18.294;2023-03-08T05:58:41;98100.00;;;-1.46;73.38
76311;BME280;65120;59.304;18.294;2023-03-08T06:01:10;98102.53;;;-1.46;73.20
76311;BME280;65120;59.304;18.294;2023-03-08T06:03:38;98107.66;;;-1.46;73.38
76311;BME280;65120;59.304;18.294;2023-03-08T06:06:04;98110.22;;;-1.46;73.20
76311;BME280;65120;59.304;18.294;2023-03-08T06:08:33;98103.47;;;-1.50;73.32
76311;BME280;65120;59.304;18.294;2023-03-08T06:11:00;98112.81;;;-1.48;73.45
76311;BME280;65120;59.304;18.294;2023-03-08T06:13:27;98108.53;;;-1.47;73.54
76311;BME280;65120;59.304;18.294;2023-03-08T06:15:54;98119.63;;;-1.48;73.12
76311;BME280;65120;59.304;18.294;2023-03-08T06:18:21;98116.28;;;-1.50;73.48
76311;BME280;65120;59.304;18.294;2023-03-08T06:20:57;98107.81;;;-1.57;73.41
76311;BME280;65120;59.304;18.294;2023-03-08T06:23:24;98130.75;;;-1.51;73.55
76311;BME280;65120;59.304;18.294;2023-03-08T06:25:53;98114.59;;;-1.54;73.70
76311;BME280;65120;59.304;18.294;2023-03-08T06:28:20;98128.25;;;-1.54;74.38
76311;BME280;65120;59.304;18.294;2023-03-08T06:30:47;98124.88;;;-1.56;74.48
76311;BME280;65120;59.304;18.294;2023-03-08T06:33:15;98127.44;;;-1.58;74.05
76311;BME280;65120;59.304;18.294;2023-03-08T06:35:42;98143.63;;;-1.55;74.39
76311;BME280;65120;59.304;18.294;2023-03-08T06:38:09;98135.19;;;-1.65;74.54
76311;BME280;65120;59.304;18.294;2023-03-08T06:40:36;98136.06;;;-1.65;74.05
76311;BME280;65120;59.304;18.294;2023-03-08T06:43:04;98153.03;;;-1.58;74.39
76311;BME280;65120;59.304;18.294;2023-03-08T06:45:31;98130.13;;;-1.68;74.29
76311;BME280;65120;59.304;18.294;2023-03-08T06:47:59;98144.50;;;-1.60;73.88
76311;BME280;65120;59.304;18.294;2023-03-08T06:50:26;98150.50;;;-1.59;73.90
76311;BME280;65120;59.304;18.294;2023-03-08T06:52:54;98157.31;;;-1.56;73.94
76311;BME280;65120;59.304;18.294;2023-03-08T06:55:21;98147.91;;;-1.58;74.31
76311;BME280;65120;59.304;18.294;2023-03-08T06:57:48;98154.72;;;-1.55;74.20
76311;BME280;65120;59.304;18.294;2023-03-08T07:00:17;98163.28;;;-1.56;74.32
76311;BME280;65120;59.304;18.294;2023-03-08T07:02:44;98175.22;;;-1.56;74.21
76311;BME280;65120;59.304;18.294;2023-03-08T07:05:13;98181.19;;;-1.56;73.83
76311;BME280;65120;59.304;18.294;2023-03-08T07:07:40;98189.72;;;-1.55;74.39
76311;BME280;65120;59.304;18.294;2023-03-08T07:10:09;98170.16;;;-1.63;73.61
76311;BME280;65120;59.304;18.294;2023-03-08T07:12:36;98195.72;;;-1.56;74.02
76311;BME280;65120;59.304;18.294;2023-03-08T07:15:06;98202.50;;;-1.55;73.98
76311;BME280;65120;59.304;18.294;2023-03-08T07:17:35;98212.75;;;-1.55;74.10
76311;BME280;65120;59.304;18.294;2023-03-08T07:20:03;98196.59;;;-1.59;73.92
76311;BME280;65120;59.304;18.294;2023-03-08T07:22:31;98207.63;;;-1.55;74.07
76311;BME280;65120;59.304;18.294;2023-03-08T07:24:58;98216.19;;;-1.56;73.87
76311;BME280;65120;59.304;18.294;2023-03-08T07:27:25;98217.03;;;-1.56;73.59
76311;BME280;65120;59.304;18.294;2023-03-08T07:29:52;98224.72;;;-1.56;74.05
76311;BME280;65120;59.304;18.294;2023-03-08T07:32:19;98223.88;;;-1.56;74.00
76311;BME280;65120;59.304;18.294;2023-03-08T07:34:49;98231.50;;;-1.55;73.70
76311;BME280;65120;59.304;18.294;2023-03-08T07:37:16;98219.66;;;-1.65;73.46
76311;BME280;65120;59.304;18.294;2023-03-08T07:39:43;98216.34;;;-1.72;73.74
76311;BME280;65120;59.304;18.294;2023-03-08T07:42:10;98257.09;;;-1.53;73.77
76311;BME280;65120;59.304;18.294;2023-03-08T07:44:37;98252.00;;;-1.53;74.07
76311;BME280;65120;59.304;18.294;2023-03-08T07:47:05;98260.50;;;-1.53;73.92
76311;BME280;65120;59.304;18.294;2023-03-08T07:49:32;98263.06;;;-1.54;73.56
76311;BME280;65120;59.304;18.294;2023-03-08T07:52:00;98269.06;;;-1.55;73.68
76311;BME280;65120;59.304;18.294;2023-03-08T07:54:27;98274.19;;;-1.55;73.48
76311;BME280;65120;59.304;18.294;2023-03-08T07:56:54;98269.06;;;-1.55;73.72
76311;BME280;65120;59.304;18.294;2023-03-08T07:59:22;98277.63;;;-1.56;73.62
76311;BME280;65120;59.304;18.294;2023-03-08T08:01:49;98281.00;;;-1.54;73.57
76311;BME280;65120;59.304;18.294;2023-03-08T08:04:16;98288.72;;;-1.58;73.68
76311;BME280;65120;59.304;18.294;2023-03-08T08:06:43;98274.25;;;-1.63;73.89
76311;BME280;65120;59.304;18.294;2023-03-08T08:09:12;98303.19;;;-1.53;73.54
76311;BME280;65120;59.304;18.294;2023-03-08T08:11:39;98292.09;;;-1.57;73.76
76311;BME280;65120;59.304;18.294;2023-03-08T08:14:07;98292.09;;;-1.55;73.43
76311;BME280;65120;59.304;18.294;2023-03-08T08:16:34;98287.06;;;-1.62;73.73
76311;BME280;65120;59.304;18.294;2023-03-08T08:19:01;98313.47;;;-1.56;73.59
76311;BME280;65120;59.304;18.294;2023-03-08T08:21:28;98309.19;;;-1.58;73.74
76311;BME280;65120;59.304;18.294;2023-03-08T08:23:54;98313.47;;;-1.58;73.45
76311;BME280;65120;59.304;18.294;2023-03-08T08:26:23;98312.59;;;-1.55;73.80
76311;BME280;65120;59.304;18.294;2023-03-08T08:28:51;98327.06;;;-1.54;73.77
76311;BME280;65120;59.304;18.294;2023-03-08T08:31:20;98331.34;;;-1.53;73.58
76311;BME280;65120;59.304;18.294;2023-03-08T08:33:47;98335.59;;;-1.54;73.20
76311;BME280;65120;59.304;18.294;2023-03-08T08:36:16;98328.78;;;-1.55;73.49
76311;BME280;65120;59.304;18.294;2023-03-08T08:38:43;98333.03;;;-1.52;73.56
76311;BME280;65120;59.304;18.294;2023-03-08T08:41:12;98337.31;;;-1.53;73.78
76311;BME280;65120;59.304;18.294;2023-03-08T08:43:43;98350.97;;;-1.52;73.55
76311;BME280;65120;59.304;18.294;2023-03-08T08:46:11;98356.06;;;-1.51;73.65
76311;BME280;65120;59.304;18.294;2023-03-08T08:48:38;98325.50;;;-1.71;73.49
76311;BME280;65120;59.304;18.294;2023-03-08T08:51:07;98363.72;;;-1.49;73.63
76311;BME280;65120;59.304;18.294;2023-03-08T08:53:34;98362.09;;;-1.58;73.24
76311;BME280;65120;59.304;18.294;2023-03-08T08:56:10;98381.66;;;-1.49;73.49
76311;BME280;65120;59.304;18.294;2023-03-08T08:58:36;98379.94;;;-1.49;73.19
76311;BME280;65120;59.304;18.294;2023-03-08T09:01:12;98384.25;;;-1.52;73.21
76311;BME280;65120;59.304;18.294;2023-03-08T09:03:38;98392.75;;;-1.49;73.19
76311;BME280;65120;59.304;18.294;2023-03-08T09:06:05;98393.59;;;-1.48;73.31
76311;BME280;65120;59.304;18.294;2023-03-08T09:08:32;98407.25;;;-1.49;73.61
76311;BME280;65120;59.304;18.294;2023-03-08T09:11:02;98409.81;;;-1.48;73.67
76311;BME280;65120;59.304;18.294;2023-03-08T09:13:29;98414.94;;;-1.49;73.42
76311;BME280;65120;59.304;18.294;2023-03-08T09:15:56;98404.72;;;-1.52;73.45
76311;BME280;65120;59.304;18.294;2023-03-08T09:18:25;98422.59;;;-1.46;73.39
76311;BME280;65120;59.304;18.294;2023-03-08T09:20:52;98416.63;;;-1.47;73.09
76311;BME280;65120;59.304;18.294;2023-03-08T09:23:19;98414.94;;;-1.49;73.13
76311;BME280;65120;59.304;18.294;2023-03-08T09:25:54;98419.16;;;-1.44;73.50
76311;BME280;65120;59.304;18.294;2023-03-08T09:28:21;98436.25;;;-1.44;73.41
76311;BME280;65120;59.304;18.294;2023-03-08T09:30:47;98429.41;;;-1.42;73.53
76311;BME280;65120;59.304;18.294;2023-03-08T09:33:15;98436.25;;;-1.44;73.29
76311;BME280;65120;59.304;18.294;2023-03-08T09:35:43;98443.06;;;-1.43;73.29
76311;BME280;65120;59.304;18.294;2023-03-08T09:38:10;98437.91;;;-1.40;73.38
76311;BME280;65120;59.304;18.294;2023-03-08T09:40:44;98449.00;;;-1.40;73.07
76311;BME280;65120;59.304;18.294;2023-03-08T09:43:22;98441.34;;;-1.43;73.38
76311;BME280;65120;59.304;18.294;2023-03-08T09:45:53;98456.69;;;-1.38;73.02
76311;BME280;65120;59.304;18.294;2023-03-08T09:48:24;98458.41;;;-1.42;72.97
76311;BME280;65120;59.304;18.294;2023-03-08T09:50:56;98469.47;;;-1.37;72.94
76311;BME280;65120;59.304;18.294;2023-03-08T09:53:28;98475.44;;;-1.36;73.15
76311;BME280;65120;59.304;18.294;2023-03-08T09:56:02;98470.31;;;-1.36;72.78
76311;BME280;65120;59.304;18.294;2023-03-08T09:58:38;98486.53;;;-1.36;73.05
76311;BME280;65120;59.304;18.294;2023-03-08T10:01:18;98484.84;;;-1.37;73.28
76311;BME280;65120;59.304;18.294;2023-03-08T10:04:17;98494.22;;;-1.36;72.96
76311;BME280;65120;59.304;18.294;2023-03-08T10:06:56;98501.06;;;-1.36;73.18
76311;BME280;65120;59.304;18.294;2023-03-08T10:09:30;98501.94;;;-1.39;72.98
76311;BME280;65120;59.304;18.294;2023-03-08T10:12:06;98508.75;;;-1.39;73.02
76311;BME280;65120;59.304;18.294;2023-03-08T10:14:40;98512.13;;;-1.37;72.76
76311;BME280;65120;59.304;18.294;2023-03-08T10:17:11;98518.97;;;-1.33;72.76
76311;BME280;65120;59.304;18.294;2023-03-08T10:19:40;98531.75;;;-1.34;72.41
76311;BME280;65120;59.304;18.294;2023-03-08T10:22:24;98533.44;;;-1.32;72.99
76311;BME280;65120;59.304;18.294;2023-03-08T10:24:56;98539.44;;;-1.30;72.48
76311;BME280;65120;59.304;18.294;2023-03-08T10:27:29;98541.13;;;-1.32;72.74
76311;BME280;65120;59.304;18.294;2023-03-08T10:29:59;98553.09;;;-1.31;72.52
76311;BME280;65120;59.304;18.294;2023-03-08T10:32:27;98547.09;;;-1.30;72.74
76311;BME280;65120;59.304;18.294;2023-03-08T10:35:00;98555.66;;;-1.28;72.75
76311;BME280;65120;59.304;18.294;2023-03-08T10:37:31;98552.25;;;-1.33;72.48
76311;BME280;65120;59.304;18.294;2023-03-08T10:40:00;98560.75;;;-1.29;72.34
76311;BME280;65120;59.304;18.294;2023-03-08T10:42:31;98579.50;;;-1.26;72.87
76311;BME280;65120;59.304;18.294;2023-03-08T10:45:01;98576.13;;;-1.25;72.38
76311;BME280;65120;59.304;18.294;2023-03-08T10:47:30;98577.81;;;-1.24;72.57
76311;BME280;65120;59.304;18.294;2023-03-08T10:50:09;98571.00;;;-1.28;72.37
76311;BME280;65120;59.304;18.294;2023-03-08T10:52:39;98577.84;;;-1.30;72.43
76311;BME280;65120;59.304;18.294;2023-03-08T10:55:10;98585.50;;;-1.22;72.71
76311;BME280;65120;59.304;18.294;2023-03-08T10:57:40;98584.63;;;-1.23;72.21
76311;BME280;65120;59.304;18.294;2023-03-08T11:00:31;98605.09;;;-1.20;72.29
76311;BME280;65120;59.304;18.294;2023-03-08T11:03:11;98579.50;;;-1.26;72.11
76311;BME280;65120;59.304;18.294;2023-03-08T11:05:39;98605.94;;;-1.16;72.31
76311;BME280;65120;59.304;18.294;2023-03-08T11:08:20;98606.78;;;-1.17;72.42
76311;BME280;65120;59.304;18.294;2023-03-08T11:10:47;98614.44;;;-1.14;72.61
76311;BME280;65120;59.304;18.294;2023-03-08T11:13:26;98616.19;;;-1.18;72.30
76311;BME280;65120;59.304;18.294;2023-03-08T11:16:01;98611.00;;;-1.11;71.90
76311;BME280;65120;59.304;18.294;2023-03-08T11:18:41;98609.31;;;-1.14;72.48
76311;BME280;65120;59.304;18.294;2023-03-08T11:21:19;98625.56;;;-1.10;72.54
76311;BME280;65120;59.304;18.294;2023-03-08T11:23:58;98627.25;;;-1.13;72.60
76311;BME280;65120;59.304;18.294;2023-03-08T11:26:35;98641.75;;;-1.07;72.41
76311;BME280;65120;59.304;18.294;2023-03-08T11:29:16;98646.84;;;-1.04;72.05
76311;BME280;65120;59.304;18.294;2023-03-08T11:31:51;98649.41;;;-1.02;72.30
76311;BME280;65120;59.304;18.294;2023-03-08T11:34:39;98642.63;;;-1.09;72.29
76311;BME280;65120;59.304;18.294;2023-03-08T11:37:15;98658.78;;;-0.98;71.64
76311;BME280;65120;59.304;18.294;2023-03-08T11:39:51;98660.50;;;-0.99;72.03
76311;BME280;65120;59.304;18.294;2023-03-08T11:42:26;98669.03;;;-0.98;72.10
76311;BME280;65120;59.304;18.294;2023-03-08T11:45:14;98671.59;;;-0.97;71.89
76311;BME280;65120;59.304;18.294;2023-03-08T11:50:52;98690.34;;;-0.90;72.20
76311;BME280;65120;59.304;18.294;2023-03-08T11:53:32;98690.31;;;-0.87;71.78
76311;BME280;65120;59.304;18.294;2023-03-08T11:56:24;98668.19;;;-1.00;72.11
76311;BME280;65120;59.304;18.294;2023-03-08T11:59:01;98700.56;;;-0.84;71.75
76311;BME280;65120;59.304;18.294;2023-03-08T12:01:34;98709.13;;;-0.85;71.47
76311;BME280;65120;59.304;18.294;2023-03-08T12:04:08;98714.19;;;-0.79;72.31
76311;BME280;65120;59.304;18.294;2023-03-08T12:06:38;98694.56;;;-0.86;71.71
76311;BME280;65120;59.304;18.294;2023-03-08T12:09:10;98713.31;;;-0.75;71.63
76311;BME280;65120;59.304;18.294;2023-03-08T12:11:44;98714.16;;;-0.74;71.80
76311;BME280;65120;59.304;18.294;2023-03-08T12:14:16;98726.09;;;-0.72;71.67
76311;BME280;65120;59.304;18.294;2023-03-08T12:16:47;98728.66;;;-0.72;71.91
76311;BME280;65120;59.304;18.294;2023-03-08T12:19:24;98728.66;;;-0.72;72.01
76311;BME280;65120;59.304;18.294;2023-03-08T12:21:58;98722.69;;;-0.72;71.26
76311;BME280;65120;59.304;18.294;2023-03-08T12:24:39;98732.94;;;-0.68;71.51
76311;BME280;65120;59.304;18.294;2023-03-08T12:27:18;98732.94;;;-0.68;71.76
76311;BME280;65120;59.304;18.294;2023-03-08T12:29:51;98721.88;;;-0.79;71.74
76311;BME280;65120;59.304;18.294;2023-03-08T12:32:20;98739.75;;;-0.66;71.63
76311;BME280;65120;59.304;18.294;2023-03-08T12:34:59;98749.16;;;-0.64;71.75
76311;BME280;65120;59.304;18.294;2023-03-08T12:37:29;98750.00;;;-0.62;71.61
76311;BME280;65120;59.304;18.294;2023-03-08T12:39:58;98758.50;;;-0.58;71.91
76311;BME280;65120;59.304;18.294;2023-03-08T12:42:33;98756.78;;;-0.58;71.44
76311;BME280;65120;59.304;18.294;2023-03-08T12:45:25;98760.22;;;-0.56;71.66
76311;BME280;65120;59.304;18.294;2023-03-08T12:48:08;98770.44;;;-0.54;71.46
76311;BME280;65120;59.304;18.294;2023-03-08T12:50:39;98774.72;;;-0.55;70.92
76311;BME280;65120;59.304;18.294;2023-03-08T12:53:20;98764.50;;;-0.56;71.17
76311;BME280;65120;59.304;18.294;2023-03-08T12:55:59;98777.28;;;-0.53;70.79
76311;BME280;65120;59.304;18.294;2023-03-08T12:58:29;98775.56;;;-0.53;70.71
76311;BME280;65120;59.304;18.294;2023-03-08T13:00:58;98778.13;;;-0.54;71.11
76311;BME280;65120;59.304;18.294;2023-03-08T13:03:28;98784.97;;;-0.55;71.48
76311;BME280;65120;59.304;18.294;2023-03-08T13:05:55;98793.53;;;-0.51;71.27